Time;durP1;ratioP1;P1;durP2;ratioP2;P2;SDS_P1;SDS_P2;PMS_P1;PMS_P2;Temp;Humidity;BMP_temperature;BMP_pressure;BME280_temperature;BME280_humidity;BME280_pressure;Samples;Min_cycle;Max_cycle;Signal;HPM_P1;HPM_P2
2022/12/08 00:00:01;;;;;;;11.20;7.35;;;6.20;99.90;6.60;99232.00;;;;339362;28;91481;-84
2022/12/08 00:00:13;;;;;;;11.27;7.60;;;6.20;99.90;6.50;99232.00;;;;340203;28;83438;-84
2022/12/08 00:00:25;;;;;;;10.52;7.70;;;6.20;99.90;6.30;99224.00;;;;343718;28;90650;-84
2022/12/08 00:00:37;;;;;;;11.25;8.13;;;6.20;99.90;6.10;99238.00;;;;342739;28;85216;-84
2022/12/08 00:00:49;;;;;;;11.70;8.10;;;6.10;99.90;6.00;99229.00;;;;342508;28;91698;-84
2022/12/08 00:01:08;;;;;;;10.88;7.65;;;6.10;99.90;6.10;99236.00;;;;342877;28;83463;-86
2022/12/08 00:01:23;;;;;;;10.40;7.40;;;6.00;99.90;6.00;99232.00;;;;345173;28;92637;-85
2022/12/08 00:01:35;;;;;;;11.57;7.75;;;6.00;99.90;6.20;99235.00;;;;344313;28;82321;-84
2022/12/08 00:01:47;;;;;;;11.95;8.35;;;6.00;99.90;6.20;99231.00;;;;340988;28;93109;-84
2022/12/08 00:02:00;;;;;;;12.77;8.32;;;6.00;99.90;6.30;99234.00;;;;342746;28;83489;-84
2022/12/08 00:02:12;;;;;;;12.65;8.48;;;6.00;99.90;6.40;99230.00;;;;340897;28;92760;-84
2022/12/08 00:02:25;;;;;;;11.68;7.95;;;6.00;99.90;6.40;99227.00;;;;342920;28;83345;-85
2022/12/08 00:02:37;;;;;;;9.60;6.88;;;6.00;99.90;6.40;99220.00;;;;342375;28;92739;-85
2022/12/08 00:02:49;;;;;;;9.07;6.68;;;6.00;99.90;6.50;99228.00;;;;340054;28;84000;-85
2022/12/08 00:03:01;;;;;;;9.13;7.20;;;6.00;99.90;6.50;99230.00;;;;342525;28;89542;-86
2022/12/08 00:03:13;;;;;;;11.68;7.78;;;6.10;99.90;6.40;99231.00;;;;340170;28;82690;-85
2022/12/08 00:03:25;;;;;;;13.30;8.88;;;6.10;99.90;6.50;99238.00;;;;340786;28;89555;-84
2022/12/08 00:03:37;;;;;;;13.07;8.55;;;6.10;99.90;6.50;99229.00;;;;340102;28;83513;-84
2022/12/08 00:03:49;;;;;;;11.68;8.48;;;6.10;99.90;6.60;99231.00;;;;339607;28;92476;-84
2022/12/08 00:04:02;;;;;;;11.30;8.05;;;6.10;99.90;6.60;99225.00;;;;339912;28;83315;-84
2022/12/08 00:04:14;;;;;;;10.75;7.72;;;6.10;99.90;6.60;99228.00;;;;343693;28;89602;-85
2022/12/08 00:04:26;;;;;;;10.18;7.28;;;6.10;99.90;6.60;99229.00;;;;341331;28;84404;-85
2022/12/08 00:09:20;;;;;;;9.20;6.50;;;6.10;99.90;6.50;99229.00;;;;342450;28;89767;-85
2022/12/08 00:09:21;;;;;;;10.50;7.72;;;5.90;99.90;6.40;99215.00;;;;339603;28;89997;-85
2022/12/08 00:09:38;;;;;;;12.63;7.80;;;5.90;99.90;6.30;99230.00;;;;341405;28;84602;-85
2022/12/08 00:09:50;;;;;;;10.40;8.07;;;6.00;99.90;6.50;99219.00;;;;342343;28;90195;-85
2022/12/08 00:10:02;;;;;;;10.38;7.85;;;6.00;99.90;6.60;99219.00;;;;340205;28;84353;-87
2022/12/08 00:10:34;;;;;;;13.43;8.13;;;6.00;99.90;6.50;99222.00;;;;341241;28;92572;-84
2022/12/08 00:11:01;;;;;;;11.18;7.38;;;6.00;99.90;6.50;99217.00;;;;342888;28;85197;-85
2022/12/08 00:11:13;;;;;;;14.23;7.47;;;6.10;99.90;6.60;99220.00;;;;342604;28;91916;-84
2022/12/08 00:11:25;;;;;;;13.93;7.78;;;6.00;99.90;6.60;99212.00;;;;339114;28;82513;-84
2022/12/08 00:11:38;;;;;;;11.63;7.75;;;6.10;99.90;6.70;99216.00;;;;341382;28;90509;-85
2022/12/08 00:11:56;;;;;;;12.20;8.32;;;6.10;99.90;6.60;99223.00;;;;340196;28;83545;-83
2022/12/08 00:12:14;;;;;;;11.30;7.85;;;6.10;99.90;6.60;99218.00;;;;341312;28;89316;-85
2022/12/08 00:12:25;;;;;;;11.35;7.78;;;6.10;99.90;6.60;99221.00;;;;341350;28;84647;-84
2022/12/08 00:12:37;;;;;;;10.55;8.23;;;6.10;99.90;6.70;99214.00;;;;340052;28;90534;-84
2022/12/08 00:12:49;;;;;;;10.07;7.82;;;6.10;99.90;6.80;99208.00;;;;343045;28;82380;-84
2022/12/08 00:13:01;;;;;;;10.07;7.30;;;6.20;99.90;6.60;99223.00;;;;344097;28;89050;-84
2022/12/08 00:13:13;;;;;;;11.13;7.65;;;6.20;99.90;6.60;99219.00;;;;341685;28;83415;-84
2022/12/08 00:13:25;;;;;;;10.98;7.78;;;6.20;99.90;6.40;99211.00;;;;341415;28;89536;-84
2022/12/08 00:13:36;;;;;;;11.40;7.63;;;6.20;99.90;6.20;99211.00;;;;343152;28;83119;-84
2022/12/08 00:13:48;;;;;;;12.23;8.27;;;6.20;99.90;6.10;99225.00;;;;341239;28;88255;-86
2022/12/08 00:14:00;;;;;;;12.23;8.38;;;6.10;99.90;6.10;99219.00;;;;344437;28;83399;-85
2022/12/08 00:14:12;;;;;;;11.43;8.27;;;6.10;99.90;6.20;99214.00;;;;339981;28;91457;-85
2022/12/08 00:14:32;;;;;;;11.73;7.78;;;6.10;99.90;6.30;99219.00;;;;341719;28;82171;-85
2022/12/08 00:14:45;;;;;;;11.05;7.68;;;6.00;99.90;6.30;99215.00;;;;342449;28;90522;-85
2022/12/08 00:14:57;;;;;;;10.60;7.70;;;6.10;99.90;6.40;99217.00;;;;341637;28;83290;-85
2022/12/08 00:15:09;;;;;;;10.70;7.53;;;6.00;99.90;6.40;99213.00;;;;342489;28;91995;-85
2022/12/08 00:15:21;;;;;;;11.68;8.07;;;6.10;99.90;6.30;99225.00;;;;340306;28;84476;-85
2022/12/08 00:15:32;;;;;;;11.75;8.18;;;6.10;99.90;6.40;99210.00;;;;341345;28;91558;-85
2022/12/08 00:15:44;;;;;;;11.18;8.00;;;6.10;99.90;6.50;99215.00;;;;338951;28;83599;-85
2022/12/08 00:15:59;;;;;;;10.50;7.90;;;6.00;99.90;6.40;99212.00;;;;341246;28;91698;-85
2022/12/08 00:16:11;;;;;;;11.16;7.98;;;6.10;99.90;6.40;99210.00;;;;341620;28;84855;-85
2022/12/08 00:16:23;;;;;;;11.75;8.20;;;6.00;99.90;6.30;99220.00;;;;342711;28;88844;-85
2022/12/08 00:16:35;;;;;;;11.15;8.02;;;6.10;99.90;6.40;99205.00;;;;344529;28;82728;-85
2022/12/08 00:16:47;;;;;;;11.82;8.30;;;6.10;99.90;6.20;99215.00;;;;344040;28;89517;-85
2022/12/08 00:16:59;;;;;;;11.20;7.95;;;6.10;99.90;6.20;99210.00;;;;344298;28;83347;-85
2022/12/08 00:17:13;;;;;;;11.40;8.00;;;6.00;99.90;6.20;99218.00;;;;342531;28;91567;-85
2022/12/08 00:17:24;;;;;;;11.30;8.07;;;6.00;99.90;6.30;99212.00;;;;338989;28;84324;-84
2022/12/08 00:17:36;;;;;;;11.23;7.97;;;6.00;99.90;6.30;99211.00;;;;340009;28;92530;-85
2022/12/08 00:17:48;;;;;;;10.43;7.78;;;6.00;99.90;6.20;99228.00;;;;342998;28;83407;-85
2022/12/08 00:18:00;;;;;;;10.20;7.72;;;6.00;99.90;6.10;99210.00;;;;341319;28;92744;-85
2022/12/08 00:18:12;;;;;;;11.27;8.02;;;6.00;99.90;6.20;99213.00;;;;342969;28;84933;-85
2022/12/08 00:18:23;;;;;;;12.38;8.18;;;6.00;99.90;6.30;99217.00;;;;343909;28;91490;-85
2022/12/08 00:18:35;;;;;;;12.45;7.90;;;6.00;99.90;6.40;99214.00;;;;342740;28;84902;-85
2022/12/08 00:18:47;;;;;;;12.25;8.02;;;6.00;99.90;6.40;99212.00;;;;339992;28;89463;-85
2022/12/08 00:18:59;;;;;;;10.52;7.85;;;6.00;99.90;6.40;99211.00;;;;341677;28;84314;-84
2022/12/08 00:19:11;;;;;;;11.68;8.25;;;6.00;99.90;6.40;99218.00;;;;341331;28;89250;-85
2022/12/08 00:19:23;;;;;;;11.95;8.35;;;6.00;99.90;6.50;99221.00;;;;345767;28;83388;-85
2022/12/08 00:19:37;;;;;;;12.32;8.82;;;6.00;99.90;6.50;99215.00;;;;341374;28;89060;-85
2022/12/08 00:19:49;;;;;;;10.80;8.02;;;6.00;99.90;6.50;99214.00;;;;344408;28;83322;-85
2022/12/08 00:20:01;;;;;;;10.35;7.75;;;6.00;99.90;6.60;99219.00;;;;340071;28;88007;-85
2022/12/08 00:20:13;;;;;;;11.10;7.72;;;6.00;99.90;6.60;99213.00;;;;344285;28;83150;-85
2022/12/08 00:20:25;;;;;;;11.45;7.57;;;6.00;99.90;6.60;99211.00;;;;341406;28;87250;-85
2022/12/08 00:20:36;;;;;;;12.45;7.95;;;6.10;99.90;6.40;99209.00;;;;338918;28;83558;-85
2022/12/08 00:20:55;;;;;;;11.98;8.35;;;6.00;99.90;6.40;99209.00;;;;343927;28;92698;-85
2022/12/08 00:21:07;;;;;;;11.95;9.02;;;6.10;99.90;6.30;99215.00;;;;342945;28;83504;-84
2022/12/08 00:21:18;;;;;;;10.75;7.90;;;6.00;99.90;6.30;99207.00;;;;340011;28;90107;-85
2022/12/08 00:21:30;;;;;;;10.65;7.55;;;6.00;99.90;6.30;99209.00;;;;343143;28;83522;-85
2022/12/08 00:21:42;;;;;;;10.25;7.22;;;6.00;99.90;6.50;99211.00;;;;341252;28;89965;-85
2022/12/08 00:21:54;;;;;;;10.52;7.57;;;6.00;99.90;6.50;99205.00;;;;342941;28;83472;-85
2022/12/08 00:22:07;;;;;;;10.52;7.38;;;6.00;99.90;6.50;99208.00;;;;342685;28;90770;-85
2022/12/08 00:22:19;;;;;;;11.23;7.55;;;6.00;99.90;6.60;99202.00;;;;341343;28;83817;-85
2022/12/08 00:22:31;;;;;;;11.00;7.90;;;6.00;99.90;6.60;99205.00;;;;340066;28;88005;-85
2022/12/08 00:22:43;;;;;;;13.23;8.18;;;6.10;99.90;6.50;99203.00;;;;342991;28;83322;-85
2022/12/08 00:22:54;;;;;;;14.40;8.20;;;6.10;99.90;6.40;99198.00;;;;342527;28;92409;-85
2022/12/08 00:23:06;;;;;;;14.63;8.23;;;6.10;99.90;6.30;99214.00;;;;340263;28;83434;-85
2022/12/08 00:23:18;;;;;;;12.13;8.27;;;6.10;99.90;6.20;99219.00;;;;342619;28;89556;-85
2022/12/08 00:23:30;;;;;;;12.43;8.68;;;6.00;99.90;6.30;99216.00;;;;341701;28;83567;-85
2022/12/08 00:23:41;;;;;;;12.20;8.95;;;6.10;99.90;6.50;99211.00;;;;342678;28;89058;-85
2022/12/08 00:23:56;;;;;;;10.30;8.32;;;6.10;99.90;6.60;99215.00;;;;342921;28;84330;-85
2022/12/08 00:24:08;;;;;;;9.06;7.72;;;6.10;99.90;6.60;99210.00;;;;341265;28;92436;-85
2022/12/08 00:24:20;;;;;;;9.63;7.57;;;6.10;99.90;6.60;99206.00;;;;341601;28;83445;-85
2022/12/08 00:24:34;;;;;;;11.63;8.10;;;6.10;99.90;6.70;99210.00;;;;339948;28;91183;-85
2022/12/08 00:24:46;;;;;;;11.82;7.93;;;6.10;99.90;6.70;99209.00;;;;341570;28;84468;-85
2022/12/08 00:24:58;;;;;;;11.48;7.43;;;6.10;99.90;6.70;99217.00;;;;339917;28;93351;-85
2022/12/08 00:25:09;;;;;;;12.45;7.68;;;6.10;99.90;6.70;99205.00;;;;342962;28;83704;-85
2022/12/08 00:25:21;;;;;;;12.52;8.07;;;6.10;99.90;6.60;99207.00;;;;342723;28;88564;-85
2022/12/08 00:25:36;;;;;;;11.85;8.23;;;6.20;99.90;6.40;99207.00;;;;341652;28;85625;-85
2022/12/08 00:25:48;;;;;;;11.43;8.65;;;6.20;99.90;6.40;99205.00;;;;341276;28;89425;-85
2022/12/08 00:26:03;;;;;;;11.38;8.38;;;6.20;99.90;6.60;99207.00;;;;339840;28;83583;-85
2022/12/08 00:26:15;;;;;;;12.15;8.02;;;6.20;99.90;6.50;99206.00;;;;342757;28;89233;-85
2022/12/08 00:26:27;;;;;;;11.93;7.55;;;6.10;99.90;6.30;99208.00;;;;340291;28;83318;-85
2022/12/08 00:26:39;;;;;;;11.40;7.00;;;6.10;99.90;6.30;99209.00;;;;342775;28;89110;-85
2022/12/08 00:26:51;;;;;;;10.18;6.95;;;6.10;99.90;6.10;99208.00;;;;340215;28;83675;-85
2022/12/08 00:27:02;;;;;;;10.00;7.15;;;6.10;99.90;6.10;99215.00;;;;342646;28;90283;-85
2022/12/08 00:27:15;;;;;;;10.20;7.50;;;6.10;99.90;6.20;99215.00;;;;341557;28;84776;-85
2022/12/08 00:27:26;;;;;;;12.07;7.80;;;6.10;99.90;6.40;99208.00;;;;341382;28;90029;-85
2022/12/08 00:27:38;;;;;;;12.23;8.13;;;6.00;99.90;6.40;99200.00;;;;344484;28;83477;-85
2022/12/08 00:27:50;;;;;;;11.28;7.84;;;6.00;99.90;6.50;99210.00;;;;342618;28;89976;-85
2022/12/08 00:28:02;;;;;;;11.65;8.02;;;6.00;99.90;6.30;99216.00;;;;341543;28;83997;-85
2022/12/08 00:28:14;;;;;;;10.10;7.38;;;6.10;99.90;6.20;99214.00;;;;341374;28;89267;-85
2022/12/08 00:28:25;;;;;;;10.05;7.35;;;6.10;99.90;6.10;99207.00;;;;341700;28;83191;-85
2022/12/08 00:28:37;;;;;;;10.70;7.70;;;6.00;99.90;6.20;99218.00;;;;340027;28;89314;-85
2022/12/08 00:28:49;;;;;;;11.45;7.63;;;6.00;99.90;6.20;99210.00;;;;344362;28;85223;-85
2022/12/08 00:29:01;;;;;;;11.60;7.63;;;6.00;99.90;6.20;99206.00;;;;338439;28;90333;-85
2022/12/08 00:29:13;;;;;;;12.18;8.55;;;6.00;99.90;6.30;99205.00;;;;341470;28;82388;-85
2022/12/08 00:29:28;;;;;;;11.07;8.38;;;6.00;99.90;6.10;99212.00;;;;342570;28;91089;-85
2022/12/08 00:29:43;;;;;;;11.32;7.78;;;6.00;99.90;6.30;99203.00;;;;339103;28;83361;-85
2022/12/08 00:29:55;;;;;;;11.98;7.95;;;6.00;99.90;6.40;99209.00;;;;341351;28;89208;-85
2022/12/08 00:30:08;;;;;;;10.70;7.53;;;6.00;99.90;6.50;99205.00;;;;344445;28;83705;-85
2022/12/08 00:30:20;;;;;;;9.70;6.95;;;6.00;99.90;6.50;99203.00;;;;341287;28;93253;-85
2022/12/08 00:30:31;;;;;;;9.48;6.70;;;6.00;99.90;6.50;99192.00;;;;341710;28;82402;-85
2022/12/08 00:30:43;;;;;;;10.13;6.90;;;6.00;99.90;6.60;99205.00;;;;339776;28;93000;-86
2022/12/08 00:30:55;;;;;;;11.05;7.78;;;6.00;99.90;6.50;99200.00;;;;340428;28;83454;-85
2022/12/08 00:31:08;;;;;;;11.45;8.07;;;6.10;99.90;6.50;99209.00;;;;341077;28;92216;-85
2022/12/08 00:31:21;;;;;;;11.30;7.75;;;6.10;99.90;6.30;99195.00;;;;342980;28;83439;-85
2022/12/08 00:31:32;;;;;;;10.77;7.47;;;6.00;99.90;6.20;99209.00;;;;339977;28;91052;-85
2022/12/08 00:31:44;;;;;;;11.50;8.20;;;6.00;99.90;6.10;99200.00;;;;342966;28;84548;-85
2022/12/08 00:31:56;;;;;;;11.50;7.93;;;6.00;99.90;6.20;99204.00;;;;340123;28;89360;-85
2022/12/08 00:32:08;;;;;;;11.18;7.68;;;6.00;99.90;6.40;99204.00;;;;342925;28;85446;-85
2022/12/08 00:32:20;;;;;;;10.13;7.13;;;6.00;99.90;6.50;99196.00;;;;342669;28;89235;-85
2022/12/08 00:32:32;;;;;;;10.57;7.13;;;6.10;99.90;6.40;99205.00;;;;341698;28;83369;-85
2022/12/08 00:32:44;;;;;;;11.02;7.28;;;6.00;99.90;6.30;99199.00;;;;344082;28;88357;-85
2022/12/08 00:32:56;;;;;;;10.60;7.63;;;6.10;99.90;6.20;99214.00;;;;340034;28;82265;-85
2022/12/08 00:33:08;;;;;;;11.90;8.10;;;6.10;99.90;6.20;99207.00;;;;342397;28;91497;-85
2022/12/08 00:33:20;;;;;;;10.98;7.50;;;6.10;99.90;6.30;99192.00;;;;340304;28;83155;-85
2022/12/08 00:33:32;;;;;;;10.80;7.50;;;6.00;99.90;6.30;99203.00;;;;341401;28;89246;-85
2022/12/08 00:33:43;;;;;;;10.40;6.75;;;6.10;99.90;6.30;99198.00;;;;338843;28;84424;-85
2022/12/08 00:33:55;;;;;;;12.18;7.10;;;6.00;99.90;6.10;99204.00;;;;344018;28;89808;-85
2022/12/08 00:34:07;;;;;;;12.35;7.50;;;6.10;99.90;6.10;99196.00;;;;340270;28;83096;-85
2022/12/08 00:34:19;;;;;;;10.25;7.43;;;6.00;99.90;6.20;99206.00;;;;342681;28;89362;-85
2022/12/08 00:34:31;;;;;;;9.35;7.50;;;6.00;99.90;6.30;99192.00;;;;341589;28;85281;-85
2022/12/08 00:34:43;;;;;;;9.80;7.85;;;6.00;99.90;6.40;99194.00;;;;342655;28;91903;-85
2022/12/08 00:34:55;;;;;;;10.48;7.93;;;6.00;99.90;6.00;99201.00;;;;341682;28;82433;-84
2022/12/08 00:35:07;;;;;;;10.38;7.43;;;6.00;99.90;6.00;99203.00;;;;338433;28;93654;-85
2022/12/08 00:35:22;;;;;;;10.82;7.30;;;6.00;99.90;6.00;99204.00;;;;341351;28;84916;-85
2022/12/08 00:35:34;;;;;;;10.98;7.03;;;6.00;99.90;6.00;99189.00;;;;338614;28;92364;-85
2022/12/08 00:35:53;;;;;;;11.88;8.25;;;5.90;99.90;6.00;99203.00;;;;342903;28;83467;-85
2022/12/08 00:36:11;;;;;;;12.75;8.48;;;5.90;99.90;6.10;99192.00;;;;342564;28;91242;-85
2022/12/08 00:36:22;;;;;;;12.48;7.97;;;5.90;99.90;6.00;99206.00;;;;340390;28;83190;-85
2022/12/08 00:36:34;;;;;;;12.00;8.05;;;5.90;99.90;6.20;99192.00;;;;339902;28;93187;-85
2022/12/08 00:36:46;;;;;;;12.15;8.32;;;5.90;99.90;6.30;99181.00;;;;340405;28;83461;-85
2022/12/08 00:36:58;;;;;;;12.40;8.63;;;5.90;99.90;6.30;99193.00;;;;342681;28;89457;-85
2022/12/08 00:37:10;;;;;;;11.52;8.00;;;5.90;99.90;6.40;99189.00;;;;344174;28;84535;-85
2022/12/08 00:37:21;;;;;;;10.80;7.65;;;5.90;99.90;6.40;99205.00;;;;343865;28;92931;-85
2022/12/08 00:37:33;;;;;;;10.38;7.40;;;6.00;99.90;6.30;99192.00;;;;343156;28;82432;-85
2022/12/08 00:37:45;;;;;;;10.15;7.00;;;6.00;99.90;6.40;99190.00;;;;341178;28;92718;-85
2022/12/08 00:37:57;;;;;;;11.18;7.35;;;6.00;99.90;6.40;99188.00;;;;342954;28;84102;-85
2022/12/08 00:38:11;;;;;;;11.95;8.02;;;5.90;99.90;6.20;99200.00;;;;337166;28;92884;-85
2022/12/08 00:38:23;;;;;;;10.98;8.10;;;6.00;99.90;6.30;99191.00;;;;343021;28;83407;-85
2022/12/08 00:38:35;;;;;;;10.90;8.38;;;5.90;99.90;6.30;99198.00;;;;342747;28;88259;-85
2022/12/08 00:38:47;;;;;;;10.85;8.30;;;5.90;99.90;6.40;99202.00;;;;341417;28;84063;-85
2022/12/08 00:38:59;;;;;;;11.15;8.25;;;6.00;99.90;6.50;99192.00;;;;343958;28;89672;-85
2022/12/08 00:39:11;;;;;;;10.98;7.93;;;6.00;99.90;6.40;99188.00;;;;341662;28;83524;-85
2022/12/08 00:39:23;;;;;;;10.73;7.43;;;6.00;99.90;6.40;99184.00;;;;343896;28;92876;-85
2022/12/08 00:39:35;;;;;;;10.32;7.30;;;6.00;99.90;6.40;99192.00;;;;343001;28;83873;-86
2022/12/08 00:39:47;;;;;;;9.80;7.13;;;6.00;99.90;6.40;99189.00;;;;339886;28;92497;-84
2022/12/08 00:39:59;;;;;;;10.95;8.23;;;6.00;99.90;6.40;99191.00;;;;343021;28;82944;-85
2022/12/08 00:40:11;;;;;;;10.23;8.13;;;6.00;99.90;6.10;99191.00;;;;342662;28;88244;-84
2022/12/08 00:40:23;;;;;;;8.80;7.32;;;6.00;99.90;6.30;99185.00;;;;340260;28;84430;-85
2022/12/08 00:40:34;;;;;;;8.04;6.72;;;6.00;99.90;6.50;99184.00;;;;342722;28;89254;-84
2022/12/08 00:40:46;;;;;;;9.63;7.13;;;6.00;99.90;6.40;99181.00;;;;340313;28;83729;-85
2022/12/08 00:40:58;;;;;;;10.38;7.53;;;6.00;99.90;6.40;99180.00;;;;339856;28;89561;-85
2022/12/08 00:41:17;;;;;;;11.00;7.82;;;6.00;99.90;6.10;99190.00;;;;341531;28;83742;-85
2022/12/08 00:42:11;;;;;;;12.07;7.68;;;6.00;99.90;6.20;99196.00;;;;341580;28;83990;-85
2022/12/08 00:42:23;;;;;;;11.10;8.23;;;6.00;99.90;6.10;99196.00;;;;343914;28;87804;-85
2022/12/08 00:42:35;;;;;;;11.50;8.60;;;6.00;99.90;6.20;99187.00;;;;345852;28;83383;-85
2022/12/08 00:42:47;;;;;;;10.68;7.57;;;5.90;99.90;6.30;99186.00;;;;342662;28;92176;-85
2022/12/08 00:42:58;;;;;;;10.63;7.82;;;6.00;99.90;6.40;99190.00;;;;345766;28;83348;-85
2022/12/08 00:43:10;;;;;;;11.20;8.35;;;6.00;99.90;6.40;99196.00;;;;341113;28;92239;-85
2022/12/08 00:43:22;;;;;;;11.80;8.98;;;6.00;99.90;6.50;99180.00;;;;345737;28;84824;-84
2022/12/08 00:43:34;;;;;;;11.40;8.18;;;6.00;99.90;6.30;99189.00;;;;341181;28;92466;-85
2022/12/08 00:43:45;;;;;;;11.35;7.65;;;6.00;99.90;6.20;99186.00;;;;344295;28;84048;-85
2022/12/08 00:43:57;;;;;;;12.27;7.63;;;6.00;99.90;6.40;99187.00;;;;341353;28;89032;-85
2022/12/08 00:44:11;;;;;;;12.00;7.65;;;6.00;99.90;6.40;99179.00;;;;344217;28;83594;-84
2022/12/08 00:44:23;;;;;;;11.15;7.90;;;6.00;99.90;6.40;99181.00;;;;344089;28;89014;-85
2022/12/08 00:44:35;;;;;;;11.05;7.90;;;6.00;99.90;6.20;99187.00;;;;341744;28;82500;-85
2022/12/08 00:44:47;;;;;;;11.52;7.43;;;6.00;99.90;6.20;99183.00;;;;342683;28;89417;-84
2022/12/08 00:44:59;;;;;;;12.05;7.78;;;6.00;99.90;6.30;99180.00;;;;343037;28;84164;-85
2022/12/08 00:45:11;;;;;;;11.48;7.93;;;6.00;99.90;6.30;99187.00;;;;342570;28;89352;-85
2022/12/08 00:45:23;;;;;;;10.23;7.43;;;6.00;99.90;6.30;99190.00;;;;344523;28;82373;-85
2022/12/08 00:45:36;;;;;;;10.85;7.95;;;6.00;99.90;6.30;99182.00;;;;342561;28;92537;-85
2022/12/08 00:45:48;;;;;;;11.57;7.75;;;6.00;99.90;6.30;99182.00;;;;342939;28;83445;-85
2022/12/08 00:46:00;;;;;;;13.05;8.85;;;6.00;99.90;6.20;99182.00;;;;344080;28;89420;-85
2022/12/08 00:46:12;;;;;;;14.45;9.38;;;6.00;99.90;6.30;99173.00;;;;341577;28;85269;-85
2022/12/08 00:46:23;;;;;;;12.80;8.75;;;6.00;99.90;6.40;99179.00;;;;339970;28;88555;-85
2022/12/08 00:46:36;;;;;;;11.27;8.43;;;6.00;99.90;6.40;99184.00;;;;342931;28;84587;-85
2022/12/08 00:46:47;;;;;;;10.82;8.27;;;6.00;99.90;6.40;99179.00;;;;339902;28;89539;-85
2022/12/08 00:46:59;;;;;;;10.77;7.68;;;6.00;99.90;6.50;99188.00;;;;341329;28;84954;-85
2022/12/08 00:47:11;;;;;;;11.05;7.57;;;6.10;99.90;6.40;99182.00;;;;343996;28;89337;-85
2022/12/08 00:47:23;;;;;;;10.55;7.72;;;6.10;99.90;6.40;99180.00;;;;341616;28;84455;-85
2022/12/08 00:47:35;;;;;;;9.57;7.22;;;6.00;99.90;6.40;99190.00;;;;342695;28;92321;-85
2022/12/08 00:47:47;;;;;;;10.38;7.30;;;6.10;99.90;6.30;99183.00;;;;344349;28;83350;-86
2022/12/08 00:47:59;;;;;;;11.80;7.47;;;6.00;99.90;6.20;99186.00;;;;339741;28;93552;-85
2022/12/08 00:48:11;;;;;;;11.82;7.93;;;6.00;99.90;6.30;99171.00;;;;341647;28;83466;-85
2022/12/08 00:48:23;;;;;;;11.85;7.80;;;6.00;99.90;6.40;99185.00;;;;342621;28;90923;-85
2022/12/08 00:48:34;;;;;;;11.30;8.15;;;6.00;99.90;6.50;99190.00;;;;343083;28;83449;-85
2022/12/08 00:48:46;;;;;;;12.45;9.00;;;6.00;99.90;6.50;99181.00;;;;338655;28;92411;-85
2022/12/08 00:48:58;;;;;;;12.63;8.88;;;6.00;99.90;6.50;99179.00;;;;341551;28;85312;-84
2022/12/08 00:49:10;;;;;;;11.35;8.32;;;6.00;99.90;6.40;99183.00;;;;342458;28;92609;-85
2022/12/08 00:49:22;;;;;;;11.27;8.10;;;6.00;99.90;6.40;99182.00;;;;342970;28;83501;-85
2022/12/08 00:49:34;;;;;;;10.38;7.85;;;6.00;99.90;6.30;99177.00;;;;341325;28;91541;-85
2022/12/08 00:49:46;;;;;;;11.45;8.00;;;6.00;99.90;6.40;99171.00;;;;342915;28;84054;-85
2022/12/08 00:49:57;;;;;;;12.20;8.07;;;6.00;99.90;6.50;99185.00;;;;343962;28;92215;-85
2022/12/08 00:50:09;;;;;;;12.70;8.10;;;6.00;99.90;6.50;99181.00;;;;341553;28;83426;-85
2022/12/08 00:50:21;;;;;;;10.70;8.27;;;6.10;99.90;6.50;99179.00;;;;345360;28;91725;-85
2022/12/08 00:50:33;;;;;;;10.57;8.18;;;6.00;99.90;6.60;99182.00;;;;342940;28;85216;-85
2022/12/08 00:50:45;;;;;;;12.07;8.05;;;6.00;99.90;6.50;99191.00;;;;339746;28;89701;-84
2022/12/08 00:50:57;;;;;;;12.30;7.55;;;6.00;99.90;6.60;99179.00;;;;343095;28;82486;-85
2022/12/08 00:51:09;;;;;;;11.13;7.18;;;6.00;99.90;6.40;99180.00;;;;341121;28;92714;-85
2022/12/08 00:51:20;;;;;;;11.43;7.60;;;6.00;99.90;6.30;99183.00;;;;344415;28;83346;-85
2022/12/08 00:51:32;;;;;;;11.90;8.00;;;6.10;99.90;6.20;99185.00;;;;341434;28;89318;-85
2022/12/08 00:51:44;;;;;;;12.88;8.30;;;6.00;99.90;6.40;99187.00;;;;340372;28;83582;-85
2022/12/08 00:51:56;;;;;;;14.25;8.32;;;6.00;99.90;6.50;99187.00;;;;342667;28;89884;-85
2022/12/08 00:52:08;;;;;;;14.13;8.07;;;6.00;99.90;6.50;99186.00;;;;343037;28;83428;-85
2022/12/08 00:52:19;;;;;;;11.43;7.78;;;6.10;99.90;6.40;99184.00;;;;342422;28;92028;-85
2022/12/08 00:52:31;;;;;;;11.07;7.57;;;6.10;99.90;6.50;99192.00;;;;341668;28;84578;-85
2022/12/08 00:52:43;;;;;;;11.52;7.78;;;6.00;99.90;6.60;99185.00;;;;339997;28;88602;-85
2022/12/08 00:52:55;;;;;;;11.35;7.75;;;6.10;99.90;6.50;99184.00;;;;342880;28;82386;-85
2022/12/08 00:53:07;;;;;;;11.10;8.02;;;6.10;99.90;6.50;99178.00;;;;341210;28;87376;-85
2022/12/08 00:53:18;;;;;;;12.05;8.30;;;6.10;99.90;6.60;99187.00;;;;340308;28;83200;-84
2022/12/08 00:53:31;;;;;;;12.93;8.75;;;6.10;99.90;6.60;99182.00;;;;342591;28;90632;-85
2022/12/08 00:53:42;;;;;;;13.90;9.02;;;6.10;99.90;6.70;99174.00;;;;342956;28;83315;-85
2022/12/08 00:53:54;;;;;;;13.70;8.38;;;6.10;99.90;6.70;99176.00;;;;343978;28;89155;-85
2022/12/08 00:54:06;;;;;;;12.68;7.45;;;6.10;99.90;6.60;99178.00;;;;342980;28;84300;-85
2022/12/08 00:54:18;;;;;;;10.75;7.00;;;6.10;99.90;6.60;99178.00;;;;341414;28;87995;-85
2022/12/08 00:54:30;;;;;;;9.85;7.13;;;6.10;99.90;6.50;99187.00;;;;337688;28;82289;-85
2022/12/08 00:54:42;;;;;;;10.48;7.60;;;6.10;99.90;6.60;99178.00;;;;341168;28;92437;-85
2022/12/08 00:54:53;;;;;;;10.35;7.38;;;6.20;99.90;6.60;99179.00;;;;342861;28;83547;-85
2022/12/08 00:55:06;;;;;;;10.20;7.28;;;6.20;99.90;6.60;99186.00;;;;344032;28;89452;-85
2022/12/08 00:55:18;;;;;;;9.70;7.10;;;6.20;99.90;6.60;99184.00;;;;341613;28;83680;-85
2022/12/08 00:55:29;;;;;;;12.20;8.13;;;6.20;99.90;6.60;99187.00;;;;342562;28;92379;-85
2022/12/08 00:55:42;;;;;;;13.77;8.60;;;6.20;99.90;6.70;99188.00;;;;343002;28;83423;-85
2022/12/08 00:55:54;;;;;;;13.75;8.20;;;6.20;99.90;6.30;99181.00;;;;340834;28;93517;-84
2022/12/08 00:56:06;;;;;;;12.02;7.88;;;6.20;99.90;6.30;99188.00;;;;340350;28;82544;-85
2022/12/08 00:56:18;;;;;;;11.05;7.82;;;6.20;99.90;6.50;99187.00;;;;339973;28;91116;-85
2022/12/08 00:56:30;;;;;;;9.88;7.68;;;6.20;99.90;6.30;99187.00;;;;341589;28;83543;-85
2022/12/08 00:56:42;;;;;;;9.85;7.65;;;6.20;99.90;6.40;99186.00;;;;341372;28;89100;-85
2022/12/08 00:56:53;;;;;;;9.82;7.30;;;6.10;99.90;6.40;99188.00;;;;343064;28;82255;-85
2022/12/08 00:57:05;;;;;;;10.32;7.63;;;6.10;99.90;6.40;99185.00;;;;339986;28;88953;-85
2022/12/08 00:57:17;;;;;;;10.63;7.75;;;6.10;99.90;6.30;99193.00;;;;342954;28;84870;-85
2022/12/08 00:57:29;;;;;;;11.93;8.50;;;6.10;99.90;6.40;99188.00;;;;341185;28;92130;-85
2022/12/08 00:57:41;;;;;;;12.25;8.65;;;6.10;99.90;6.20;99191.00;;;;343014;28;84639;-85
2022/12/08 00:57:53;;;;;;;11.00;8.25;;;6.10;99.90;6.40;99187.00;;;;342572;28;91312;-85
2022/12/08 00:58:04;;;;;;;11.13;8.07;;;6.10;99.90;6.50;99177.00;;;;341604;28;85375;-84
2022/12/08 00:58:16;;;;;;;11.40;8.02;;;6.10;99.90;6.40;99192.00;;;;339956;28;90468;-85
2022/12/08 00:58:28;;;;;;;12.45;8.40;;;6.10;99.90;6.50;99191.00;;;;341349;28;83516;-85
2022/12/08 00:58:41;;;;;;;12.57;8.15;;;6.10;99.90;6.40;99188.00;;;;345313;28;90179;-85
2022/12/08 00:58:53;;;;;;;13.52;8.20;;;6.10;99.90;6.30;99180.00;;;;343010;28;83615;-85
2022/12/08 00:59:06;;;;;;;13.13;8.20;;;6.10;99.90;6.30;99185.00;;;;341239;28;90813;-85
2022/12/08 00:59:18;;;;;;;11.75;8.00;;;6.10;99.90;6.40;99184.00;;;;338862;28;85586;-85
2022/12/08 00:59:30;;;;;;;10.94;7.74;;;6.10;99.90;6.50;99189.00;;;;339904;28;92446;-85
2022/12/08 00:59:42;;;;;;;12.00;7.65;;;6.10;99.90;6.40;99184.00;;;;341509;28;84576;-85
2022/12/08 00:59:53;;;;;;;12.32;8.10;;;6.10;99.90;6.30;99192.00;;;;342512;28;90671;-85
2022/12/08 01:00:06;;;;;;;13.73;8.68;;;6.10;99.90;6.30;99191.00;;;;341632;28;84744;-85
2022/12/08 01:00:19;;;;;;;14.07;9.13;;;6.10;99.90;6.50;99184.00;;;;339975;28;89866;-85
2022/12/08 01:00:31;;;;;;;13.32;9.00;;;6.00;99.90;6.50;99188.00;;;;342986;28;83533;-84
2022/12/08 01:00:43;;;;;;;12.15;9.10;;;6.10;99.90;6.50;99189.00;;;;342723;28;88007;-85
2022/12/08 01:00:55;;;;;;;13.18;9.23;;;6.10;99.90;6.60;99182.00;;;;343042;28;83409;-84
2022/12/08 01:01:13;;;;;;;13.23;8.55;;;6.10;99.90;6.20;99189.00;;;;345195;28;92361;-85
2022/12/08 01:01:25;;;;;;;12.25;8.18;;;6.10;99.90;6.10;99192.00;;;;342762;28;83527;-85
2022/12/08 01:01:37;;;;;;;11.50;8.60;;;6.10;99.90;6.20;99187.00;;;;342394;28;91204;-85